Time;durP1;ratioP1;P1;durP2;ratioP2;P2;SDS_P1;SDS_P2;PMS_P1;PMS_P2;Temp;Humidity;BMP_temperature;BMP_pressure;BME280_temperature;BME280_humidity;BME280_pressure;Samples;Min_cycle;Max_cycle;Signal;HPM_P1;HPM_P2
2023/02/11 00:00:38;;;;;;;;;;;17.00;55.40;;;;;;5037607;28;1267;-67
2023/02/11 00:03:04;;;;;;;;;;;17.00;55.40;;;;;;5039764;28;871;-67
2023/02/11 00:05:29;;;;;;;;;;;17.00;55.40;;;;;;5040484;28;1074;-67
2023/02/11 00:07:55;;;;;;;;;;;17.00;55.50;;;;;;5040826;28;938;-68
2023/02/11 00:10:20;;;;;;;;;;;17.00;55.50;;;;;;5038596;28;1902;-67
2023/02/11 00:12:46;;;;;;;;;;;17.00;55.50;;;;;;5036503;28;892;-67
2023/02/11 00:15:11;;;;;;;;;;;17.00;55.50;;;;;;5040759;28;908;-67
2023/02/11 00:17:37;;;;;;;;;;;16.90;55.50;;;;;;5042006;28;1063;-67
2023/02/11 00:20:02;;;;;;;;;;;17.00;55.50;;;;;;5038705;28;1357;-67
2023/02/11 00:22:28;;;;;;;;;;;17.00;55.60;;;;;;5040275;28;947;-67
2023/02/11 00:24:53;;;;;;;;;;;17.00;55.60;;;;;;5036768;28;951;-68
2023/02/11 00:27:19;;;;;;;;;;;17.00;55.60;;;;;;5038778;28;938;-67
2023/02/11 00:29:44;;;;;;;;;;;16.90;55.60;;;;;;5039481;28;1902;-67
2023/02/11 00:32:10;;;;;;;;;;;17.00;55.70;;;;;;5038934;28;808;-67
2023/02/11 00:34:35;;;;;;;;;;;17.00;55.60;;;;;;5044094;28;929;-68
2023/02/11 00:37:01;;;;;;;;;;;16.90;55.60;;;;;;5039658;28;1360;-67
2023/02/11 00:39:26;;;;;;;;;;;16.90;55.70;;;;;;5038411;28;1263;-67
2023/02/11 00:41:52;;;;;;;;;;;16.90;55.70;;;;;;5040586;28;816;-67
2023/02/11 00:44:17;;;;;;;;;;;16.90;55.70;;;;;;5039667;28;874;-67
2023/02/11 00:46:43;;;;;;;;;;;16.90;55.70;;;;;;5038303;28;931;-68
2023/02/11 00:49:08;;;;;;;;;;;16.90;55.70;;;;;;5040708;28;1894;-67
2023/02/11 00:51:34;;;;;;;;;;;16.90;55.70;;;;;;5044023;28;1330;-67
2023/02/11 00:53:59;;;;;;;;;;;16.90;55.80;;;;;;5041572;28;806;-67
2023/02/11 00:56:25;;;;;;;;;;;16.90;55.80;;;;;;5038146;28;856;-68
2023/02/11 00:58:50;;;;;;;;;;;16.90;55.80;;;;;;5037018;28;924;-67
2023/02/11 01:01:16;;;;;;;;;;;16.90;55.80;;;;;;5038594;28;1339;-67
2023/02/11 01:03:41;;;;;;;;;;;16.90;55.90;;;;;;5038885;28;948;-67
2023/02/11 01:06:07;;;;;;;;;;;16.90;55.90;;;;;;5040509;28;904;-67
2023/02/11 01:08:36;;;;;;;;;;;16.90;55.90;;;;;;5071076;28;1903;-68
2023/02/11 01:11:03;;;;;;;;;;;17.00;55.90;;;;;;5039688;28;1408;-67
2023/02/11 01:13:29;;;;;;;;;;;16.90;55.90;;;;;;5035691;28;895;-67
2023/02/11 01:15:54;;;;;;;;;;;16.90;55.90;;;;;;5071032;28;915;-67
2023/02/11 01:18:20;;;;;;;;;;;16.90;55.90;;;;;;5036575;28;903;-67
2023/02/11 01:20:45;;;;;;;;;;;16.90;55.90;;;;;;5056096;28;1267;-67
2023/02/11 01:23:11;;;;;;;;;;;16.90;55.90;;;;;;5039518;28;817;-67
2023/02/11 01:25:36;;;;;;;;;;;16.90;55.90;;;;;;5040670;28;864;-67
2023/02/11 01:28:01;;;;;;;;;;;16.90;56.00;;;;;;5041004;28;1077;-67
2023/02/11 01:30:27;;;;;;;;;;;16.90;56.00;;;;;;5039393;28;1901;-67
2023/02/11 01:32:52;;;;;;;;;;;16.90;56.20;;;;;;5068905;28;998;-67
2023/02/11 01:35:18;;;;;;;;;;;16.90;56.00;;;;;;5039250;28;968;-67
2023/02/11 01:37:43;;;;;;;;;;;16.90;56.00;;;;;;5039637;28;1342;-67
2023/02/11 01:40:15;;;;;;;;;;;16.90;56.10;;;;;;5068557;28;1396;-67
2023/02/11 01:42:41;;;;;;;;;;;16.90;56.10;;;;;;5038111;28;950;-67
2023/02/11 01:45:25;;;;;;;;;;;16.90;56.10;;;;;;5038102;28;869;-67
2023/02/11 01:47:50;;;;;;;;;;;16.90;56.20;;;;;;5038129;28;880;-67
2023/02/11 01:50:16;;;;;;;;;;;16.90;56.10;;;;;;5046484;28;1966;-67
2023/02/11 01:52:42;;;;;;;;;;;16.90;56.20;;;;;;5040198;28;907;-67
2023/02/11 01:57:55;;;;;;;;;;;16.90;56.20;;;;;;5067646;28;843;-67
2023/02/11 02:00:32;;;;;;;;;;;16.90;56.20;;;;;;5073905;28;1282;-67
2023/02/11 02:02:59;;;;;;;;;;;16.90;56.20;;;;;;5075120;28;946;-67
2023/02/11 02:05:35;;;;;;;;;;;16.90;56.20;;;;;;5072023;28;984;-67
2023/02/11 02:08:04;;;;;;;;;;;16.90;56.20;;;;;;5073387;28;899;-67
2023/02/11 02:10:29;;;;;;;;;;;16.90;56.30;;;;;;5042483;28;1898;-68
2023/02/11 02:12:55;;;;;;;;;;;16.90;56.30;;;;;;5045966;28;804;-67
2023/02/11 02:15:25;;;;;;;;;;;16.90;56.30;;;;;;5040954;28;934;-68
2023/02/11 02:17:59;;;;;;;;;;;16.90;56.30;;;;;;5041759;28;808;-67
2023/02/11 02:20:25;;;;;;;;;;;16.90;56.30;;;;;;5074561;28;1343;-67
2023/02/11 02:23:01;;;;;;;;;;;16.90;56.40;;;;;;5041954;28;906;-68
2023/02/11 02:25:34;;;;;;;;;;;16.90;56.30;;;;;;5072929;28;1057;-68
2023/02/11 02:28:11;;;;;;;;;;;16.90;56.40;;;;;;5075634;28;910;-67
2023/02/11 02:30:49;;;;;;;;;;;16.90;56.40;;;;;;5042074;28;1890;-67
2023/02/11 02:33:17;;;;;;;;;;;16.90;56.40;;;;;;5073061;28;808;-67
2023/02/11 02:36:01;;;;;;;;;;;16.90;56.40;;;;;;5041897;28;1374;-67
2023/02/11 02:38:37;;;;;;;;;;;16.90;56.40;;;;;;5039125;28;912;-67
2023/02/11 02:41:02;;;;;;;;;;;16.90;57.00;;;;;;5071803;28;1377;-67
2023/02/11 02:43:28;;;;;;;;;;;16.90;56.40;;;;;;5040594;28;835;-67
2023/02/11 02:45:53;;;;;;;;;;;16.90;56.50;;;;;;5072452;28;850;-67
2023/02/11 02:48:29;;;;;;;;;;;16.90;56.50;;;;;;5044160;28;934;-67
2023/02/11 02:50:58;;;;;;;;;;;16.90;56.50;;;;;;5041632;28;1246;-67
2023/02/11 02:53:27;;;;;;;;;;;16.90;56.50;;;;;;5073120;28;807;-67
2023/02/11 02:56:01;;;;;;;;;;;16.90;56.50;;;;;;5056181;28;1500;-67
2023/02/11 02:58:45;;;;;;;;;;;16.90;56.60;;;;;;5039598;28;1007;-67
2023/02/11 03:01:33;;;;;;;;;;;16.90;56.50;;;;;;5040586;28;1259;-67
2023/02/11 03:04:04;;;;;;;;;;;16.90;56.60;;;;;;5072033;28;856;-67
2023/02/11 03:06:34;;;;;;;;;;;16.90;57.20;;;;;;5073254;28;946;-67
2023/02/11 03:09:02;;;;;;;;;;;16.90;56.60;;;;;;5069789;28;1965;-67
2023/02/11 03:11:27;;;;;;;;;;;16.90;56.60;;;;;;5072206;28;1393;-68
2023/02/11 03:13:52;;;;;;;;;;;16.90;56.60;;;;;;5059230;28;1109;-68
2023/02/11 03:16:24;;;;;;;;;;;16.90;56.60;;;;;;5038844;28;888;-68
2023/02/11 03:18:52;;;;;;;;;;;16.90;56.60;;;;;;5072975;28;860;-67
2023/02/11 03:21:17;;;;;;;;;;;16.90;56.60;;;;;;5071454;28;1352;-68
2023/02/11 03:23:43;;;;;;;;;;;16.90;56.70;;;;;;5072644;28;919;-67
2023/02/11 03:26:13;;;;;;;;;;;16.90;56.70;;;;;;5041356;28;892;-67
2023/02/11 03:28:41;;;;;;;;;;;16.90;56.70;;;;;;5074202;28;1950;-67
2023/02/11 03:31:09;;;;;;;;;;;16.90;56.70;;;;;;5074897;28;1366;-68
2023/02/11 03:33:55;;;;;;;;;;;16.90;56.70;;;;;;5068986;28;852;-67
2023/02/11 03:36:22;;;;;;;;;;;16.90;56.70;;;;;;5039132;28;1309;-67
2023/02/11 03:38:48;;;;;;;;;;;16.90;56.70;;;;;;5073787;28;899;-67
2023/02/11 03:41:15;;;;;;;;;;;16.90;56.70;;;;;;5072251;28;1476;-67
2023/02/11 03:43:44;;;;;;;;;;;16.90;56.70;;;;;;5072708;28;879;-67
2023/02/11 03:46:09;;;;;;;;;;;16.90;56.70;;;;;;5070480;28;942;-67
2023/02/11 03:48:36;;;;;;;;;;;16.90;56.80;;;;;;5056203;28;1906;-68
2023/02/11 03:51:02;;;;;;;;;;;16.90;56.70;;;;;;5069948;28;1343;-68
2023/02/11 03:53:28;;;;;;;;;;;16.90;56.80;;;;;;5070451;28;919;-67
2023/02/11 03:55:53;;;;;;;;;;;16.90;56.80;;;;;;5038940;28;918;-68
2023/02/11 03:58:19;;;;;;;;;;;16.90;56.80;;;;;;5073261;28;1773;-68
2023/02/11 04:00:44;;;;;;;;;;;16.90;56.80;;;;;;5071769;28;1308;-67
2023/02/11 04:03:10;;;;;;;;;;;16.90;57.40;;;;;;5040984;28;900;-67
2023/02/11 04:05:35;;;;;;;;;;;16.90;56.80;;;;;;5068902;28;1448;-67
2023/02/11 04:08:01;;;;;;;;;;;16.90;56.80;;;;;;5038586;28;895;-68
2023/02/11 04:10:26;;;;;;;;;;;16.90;56.90;;;;;;5071395;28;1952;-68
2023/02/11 04:12:52;;;;;;;;;;;16.90;56.90;;;;;;5036186;28;917;-68
2023/02/11 04:15:17;;;;;;;;;;;16.90;56.80;;;;;;5039771;28;907;-68
2023/02/11 04:17:43;;;;;;;;;;;16.90;56.90;;;;;;5072112;28;1470;-69
2023/02/11 04:20:08;;;;;;;;;;;16.90;56.90;;;;;;5037646;28;1257;-67
2023/02/11 04:22:34;;;;;;;;;;;16.90;56.90;;;;;;5070352;28;911;-67
2023/02/11 04:24:59;;;;;;;;;;;16.90;57.50;;;;;;5038756;28;882;-67
2023/02/11 04:27:25;;;;;;;;;;;16.90;56.90;;;;;;5068665;28;1096;-67
2023/02/11 04:29:50;;;;;;;;;;;16.90;56.90;;;;;;5037400;28;1902;-68
2023/02/11 04:32:16;;;;;;;;;;;16.90;56.90;;;;;;5040025;28;834;-68
2023/02/11 04:34:41;;;;;;;;;;;16.90;56.90;;;;;;5040414;28;1098;-68
2023/02/11 04:37:07;;;;;;;;;;;16.90;56.90;;;;;;5040475;28;948;-67
2023/02/11 04:39:33;;;;;;;;;;;16.90;56.90;;;;;;5039700;28;1295;-67
2023/02/11 04:41:58;;;;;;;;;;;16.90;57.00;;;;;;5039053;28;938;-68
2023/02/11 04:44:24;;;;;;;;;;;16.90;56.90;;;;;;5037138;28;938;-68
2023/02/11 04:46:49;;;;;;;;;;;16.90;57.00;;;;;;5042253;28;904;-68
2023/02/11 04:49:15;;;;;;;;;;;16.90;57.00;;;;;;5038158;28;1907;-68
2023/02/11 04:51:40;;;;;;;;;;;16.90;57.00;;;;;;5060495;28;1326;-67
2023/02/11 04:54:06;;;;;;;;;;;16.90;57.00;;;;;;5070973;28;982;-67
2023/02/11 04:56:31;;;;;;;;;;;16.90;57.00;;;;;;5038088;28;1011;-68
2023/02/11 04:58:57;;;;;;;;;;;16.90;57.00;;;;;;5038246;28;801;-68
2023/02/11 05:01:22;;;;;;;;;;;16.90;57.00;;;;;;5037935;28;1269;-67
2023/02/11 05:03:48;;;;;;;;;;;16.90;57.10;;;;;;5038631;28;1213;-67
2023/02/11 05:06:13;;;;;;;;;;;16.90;57.10;;;;;;5036507;28;900;-68
2023/02/11 05:08:39;;;;;;;;;;;16.90;57.00;;;;;;5036490;28;1961;-67
2023/02/11 05:11:04;;;;;;;;;;;16.90;57.00;;;;;;5037727;28;1292;-68
2023/02/11 05:13:29;;;;;;;;;;;16.90;57.00;;;;;;5037776;28;871;-68
2023/02/11 05:15:55;;;;;;;;;;;16.90;57.00;;;;;;5039798;28;874;-68
2023/02/11 05:18:20;;;;;;;;;;;17.00;56.90;;;;;;5040636;28;808;-68
2023/02/11 05:20:46;;;;;;;;;;;17.00;56.80;;;;;;5071400;28;1242;-67
2023/02/11 05:23:11;;;;;;;;;;;17.00;56.80;;;;;;5067715;28;1019;-68
2023/02/11 05:25:37;;;;;;;;;;;17.10;56.70;;;;;;5037488;28;1018;-67
2023/02/11 05:28:02;;;;;;;;;;;17.10;56.70;;;;;;5037566;28;888;-67
2023/02/11 05:30:28;;;;;;;;;;;17.10;56.60;;;;;;5073464;28;1906;-67
2023/02/11 05:32:53;;;;;;;;;;;17.10;56.60;;;;;;5069086;28;891;-68
2023/02/11 05:35:19;;;;;;;;;;;17.20;56.60;;;;;;5040170;28;1019;-68
2023/02/11 05:37:44;;;;;;;;;;;17.20;56.50;;;;;;5038681;28;967;-68
2023/02/11 05:40:10;;;;;;;;;;;17.10;56.40;;;;;;5037553;28;1355;-68
2023/02/11 05:42:35;;;;;;;;;;;17.10;56.40;;;;;;5039042;28;883;-69
2023/02/11 05:45:01;;;;;;;;;;;17.20;56.40;;;;;;5038167;28;900;-67
2023/02/11 05:47:26;;;;;;;;;;;17.20;56.30;;;;;;5035846;28;864;-68
2023/02/11 05:49:55;;;;;;;;;;;17.30;56.40;;;;;;5039072;28;1926;-68
2023/02/11 05:52:20;;;;;;;;;;;17.40;56.30;;;;;;5035921;28;974;-68
2023/02/11 05:54:46;;;;;;;;;;;17.50;56.20;;;;;;5038558;28;801;-68
2023/02/11 05:57:11;;;;;;;;;;;17.70;56.00;;;;;;5036410;28;1769;-70
2023/02/11 05:59:37;;;;;;;;;;;17.90;55.80;;;;;;5039651;28;1759;-70
2023/02/11 06:02:02;;;;;;;;;;;18.10;55.40;;;;;;5039271;28;1213;-68
2023/02/11 06:04:28;;;;;;;;;;;18.20;54.90;;;;;;5042984;28;1352;-72
2023/02/11 06:06:53;;;;;;;;;;;18.40;54.60;;;;;;5037952;28;1013;-69
2023/02/11 06:09:19;;;;;;;;;;;18.60;54.20;;;;;;5068405;28;1972;-69
2023/02/11 06:11:44;;;;;;;;;;;18.80;53.90;;;;;;5037804;28;812;-71
2023/02/11 06:14:10;;;;;;;;;;;19.00;53.60;;;;;;5038572;28;871;-71
2023/02/11 06:16:35;;;;;;;;;;;19.10;53.30;;;;;;5036832;28;1235;-73
2023/02/11 06:19:01;;;;;;;;;;;19.20;53.00;;;;;;5069411;28;895;-72
2023/02/11 06:21:26;;;;;;;;;;;19.40;52.80;;;;;;5041913;28;1280;-72
2023/02/11 06:23:52;;;;;;;;;;;19.50;52.60;;;;;;5037854;28;865;-69
2023/02/11 06:26:18;;;;;;;;;;;19.60;52.40;;;;;;5036589;28;950;-69
2023/02/11 06:28:44;;;;;;;;;;;19.70;52.20;;;;;;5071423;28;1898;-69
2023/02/11 06:31:10;;;;;;;;;;;19.80;52.00;;;;;;5041312;28;1267;-70
2023/02/11 06:33:36;;;;;;;;;;;19.80;51.80;;;;;;5039454;28;844;-70
2023/02/11 06:36:01;;;;;;;;;;;19.90;51.60;;;;;;5040521;28;1207;-70
2023/02/11 06:38:27;;;;;;;;;;;19.90;51.50;;;;;;5074501;28;947;-71
2023/02/11 06:40:52;;;;;;;;;;;20.00;51.40;;;;;;5038608;28;1255;-70
2023/02/11 06:43:18;;;;;;;;;;;20.00;51.30;;;;;;5041831;28;920;-68
2023/02/11 06:45:43;;;;;;;;;;;20.10;51.30;;;;;;5044573;28;945;-70
2023/02/11 06:48:08;;;;;;;;;;;20.10;51.20;;;;;;5042697;28;928;-69
2023/02/11 06:50:34;;;;;;;;;;;20.20;51.20;;;;;;5041291;28;1906;-70
2023/02/11 06:52:59;;;;;;;;;;;20.20;51.10;;;;;;5039364;28;1047;-70
2023/02/11 06:55:25;;;;;;;;;;;20.20;51.10;;;;;;5043695;28;1184;-69
2023/02/11 06:57:50;;;;;;;;;;;20.20;51.10;;;;;;5042546;28;850;-70
2023/02/11 07:00:16;;;;;;;;;;;20.20;51.10;;;;;;5041891;28;1277;-70
2023/02/11 07:02:41;;;;;;;;;;;20.20;51.10;;;;;;5043491;28;834;-70
2023/02/11 07:05:07;;;;;;;;;;;20.20;51.10;;;;;;5074116;28;1348;-70
2023/02/11 07:07:32;;;;;;;;;;;20.20;51.10;;;;;;5035845;28;1914;-70
2023/02/11 07:09:58;;;;;;;;;;;20.20;51.10;;;;;;5045853;28;1917;-70
2023/02/11 07:12:23;;;;;;;;;;;20.20;51.20;;;;;;5041708;28;789;-69
2023/02/11 07:14:49;;;;;;;;;;;20.20;51.30;;;;;;5041309;28;855;-70
2023/02/11 07:17:14;;;;;;;;;;;20.20;51.30;;;;;;5042223;28;1109;-71
2023/02/11 07:19:40;;;;;;;;;;;20.20;51.40;;;;;;5040333;28;1276;-70
2023/02/11 07:22:05;;;;;;;;;;;20.20;51.50;;;;;;5046245;28;2011;-70
2023/02/11 07:24:31;;;;;;;;;;;20.20;51.60;;;;;;5046084;28;1368;-70
2023/02/11 07:26:56;;;;;;;;;;;20.10;51.70;;;;;;5041611;28;1305;-70
2023/02/11 07:29:22;;;;;;;;;;;20.10;52.40;;;;;;5041434;28;1886;-68
2023/02/11 07:31:47;;;;;;;;;;;20.10;51.90;;;;;;5040458;28;980;-71
2023/02/11 07:34:13;;;;;;;;;;;20.00;52.00;;;;;;5073634;28;969;-69
2023/02/11 07:36:38;;;;;;;;;;;20.00;52.10;;;;;;5039983;28;949;-72
2023/02/11 07:39:04;;;;;;;;;;;20.00;52.20;;;;;;5043154;28;903;-72
2023/02/11 07:41:29;;;;;;;;;;;19.90;52.30;;;;;;5043251;28;890;-69
2023/02/11 07:43:55;;;;;;;;;;;19.90;52.30;;;;;;5039778;28;858;-70
2023/02/11 07:46:24;;;;;;;;;;;19.90;52.50;;;;;;5034232;28;919;-68
2023/02/11 07:48:49;;;;;;;;;;;19.90;52.50;;;;;;5069007;28;1898;-69
2023/02/11 07:51:16;;;;;;;;;;;19.90;52.60;;;;;;5071866;28;1358;-67
2023/02/11 07:53:41;;;;;;;;;;;19.80;52.60;;;;;;5073199;28;1594;-67
2023/02/11 07:56:07;;;;;;;;;;;19.80;52.70;;;;;;5040860;28;978;-70
2023/02/11 07:58:32;;;;;;;;;;;19.80;52.70;;;;;;5073296;28;823;-70
2023/02/11 08:01:05;;;;;;;;;;;19.80;52.70;;;;;;5072632;28;2312;-70
2023/02/11 08:03:30;;;;;;;;;;;19.80;52.70;;;;;;5043054;28;1301;-70
2023/02/11 08:05:56;;;;;;;;;;;19.80;52.70;;;;;;5042644;28;1379;-70
2023/02/11 08:08:21;;;;;;;;;;;19.90;52.70;;;;;;5040906;28;1538;-70
2023/02/11 08:10:47;;;;;;;;;;;19.90;52.70;;;;;;5042883;28;1910;-70
2023/02/11 08:13:12;;;;;;;;;;;19.80;52.70;;;;;;5043014;28;1418;-70
2023/02/11 08:15:38;;;;;;;;;;;19.80;52.80;;;;;;5042774;28;1353;-70
2023/02/11 08:18:03;;;;;;;;;;;19.80;52.90;;;;;;5040301;28;1239;-70
2023/02/11 08:20:29;;;;;;;;;;;19.80;53.20;;;;;;5070423;28;1528;-70
2023/02/11 08:22:54;;;;;;;;;;;19.80;53.40;;;;;;5039968;28;1322;-69
2023/02/11 08:25:20;;;;;;;;;;;19.80;53.40;;;;;;5040516;28;1334;-70
2023/02/11 08:27:45;;;;;;;;;;;19.80;53.60;;;;;;5041962;28;1018;-69
2023/02/11 08:30:11;;;;;;;;;;;19.80;53.90;;;;;;5038872;28;1902;-68
2023/02/11 08:32:38;;;;;;;;;;;19.80;53.90;;;;;;5040850;28;1049;-69
2023/02/11 08:35:04;;;;;;;;;;;19.80;54.00;;;;;;5052319;28;1302;-69
2023/02/11 08:37:29;;;;;;;;;;;19.70;54.10;;;;;;5069859;28;1344;-69
2023/02/11 08:39:55;;;;;;;;;;;19.70;54.20;;;;;;5037128;28;1719;-69
2023/02/11 08:42:20;;;;;;;;;;;19.70;54.30;;;;;;5037918;28;875;-69
2023/02/11 08:44:46;;;;;;;;;;;19.70;54.40;;;;;;5038479;28;864;-69
2023/02/11 08:47:11;;;;;;;;;;;19.70;54.60;;;;;;5038284;28;910;-69
2023/02/11 08:49:36;;;;;;;;;;;19.70;54.70;;;;;;5039608;28;1961;-70
2023/02/11 08:52:03;;;;;;;;;;;19.60;54.70;;;;;;5037452;28;820;-70
2023/02/11 08:54:29;;;;;;;;;;;19.60;54.80;;;;;;5039989;28;872;-69
2023/02/11 08:56:54;;;;;;;;;;;19.70;55.00;;;;;;5068618;28;859;-70
2023/02/11 08:59:20;;;;;;;;;;;19.60;55.00;;;;;;5038129;28;1288;-69
2023/02/11 09:01:46;;;;;;;;;;;19.60;55.10;;;;;;5037057;28;900;-70
2023/02/11 09:04:11;;;;;;;;;;;19.60;55.10;;;;;;5036934;28;1329;-70
2023/02/11 09:06:37;;;;;;;;;;;19.60;55.70;;;;;;5039691;28;1628;-70
2023/02/11 09:09:03;;;;;;;;;;;19.60;55.70;;;;;;5070564;28;1910;-69
2023/02/11 09:11:33;;;;;;;;;;;19.60;55.80;;;;;;5036938;28;2271;-70
2023/02/11 09:13:58;;;;;;;;;;;19.60;55.70;;;;;;5039435;28;1255;-69
2023/02/11 09:16:25;;;;;;;;;;;19.60;55.90;;;;;;5075887;28;1524;-69
2023/02/11 09:18:50;;;;;;;;;;;19.60;56.00;;;;;;5037884;28;1410;-69
2023/02/11 09:21:16;;;;;;;;;;;19.60;56.10;;;;;;5038806;28;1218;-69
2023/02/11 09:23:43;;;;;;;;;;;19.50;56.10;;;;;;5070127;28;859;-70
2023/02/11 09:26:13;;;;;;;;;;;19.50;56.20;;;;;;5069555;28;836;-70
2023/02/11 09:28:38;;;;;;;;;;;19.50;56.40;;;;;;5040560;28;1275;-70
2023/02/11 09:31:05;;;;;;;;;;;19.60;56.50;;;;;;5040131;28;1960;-70
2023/02/11 09:33:31;;;;;;;;;;;19.50;56.40;;;;;;5072252;28;904;-70
2023/02/11 09:35:59;;;;;;;;;;;19.50;56.40;;;;;;5038882;28;1369;-70
2023/02/11 09:38:24;;;;;;;;;;;19.50;56.50;;;;;;5040068;28;930;-70
2023/02/11 09:40:50;;;;;;;;;;;19.50;56.40;;;;;;5037622;28;1268;-70
2023/02/11 09:43:19;;;;;;;;;;;19.50;56.50;;;;;;5037911;28;837;-71
2023/02/11 09:45:45;;;;;;;;;;;19.50;56.50;;;;;;5072711;28;846;-70
2023/02/11 09:48:17;;;;;;;;;;;19.50;56.60;;;;;;5038735;28;796;-70
2023/02/11 09:50:49;;;;;;;;;;;19.50;56.60;;;;;;5068071;28;1894;-69
2023/02/11 09:53:18;;;;;;;;;;;19.50;56.80;;;;;;5072243;28;863;-69
2023/02/11 09:55:47;;;;;;;;;;;19.50;57.00;;;;;;5038097;28;892;-70
2023/02/11 09:58:13;;;;;;;;;;;19.50;56.90;;;;;;5036197;28;1093;-69
2023/02/11 10:00:42;;;;;;;;;;;19.50;56.90;;;;;;5067774;28;1263;-70
2023/02/11 10:03:12;;;;;;;;;;;19.50;57.00;;;;;;5070935;28;876;-70
2023/02/11 10:05:37;;;;;;;;;;;19.50;57.00;;;;;;5070411;28;949;-69
2023/02/11 10:08:08;;;;;;;;;;;19.50;57.10;;;;;;5036181;28;856;-70
2023/02/11 10:10:43;;;;;;;;;;;19.50;57.10;;;;;;5041032;28;1959;-70
2023/02/11 10:13:24;;;;;;;;;;;19.40;57.00;;;;;;5041204;28;880;-70
2023/02/11 10:16:08;;;;;;;;;;;19.50;57.10;;;;;;5040729;28;882;-70
2023/02/11 10:18:40;;;;;;;;;;;19.50;57.10;;;;;;5039429;28;962;-70
2023/02/11 10:21:09;;;;;;;;;;;19.50;57.10;;;;;;5075528;28;1279;-70
2023/02/11 10:23:36;;;;;;;;;;;19.40;57.00;;;;;;5074986;28;1022;-69
2023/02/11 10:26:01;;;;;;;;;;;19.50;57.00;;;;;;5040981;28;837;-71
2023/02/11 10:28:33;;;;;;;;;;;19.50;57.10;;;;;;5042350;28;919;-70
2023/02/11 10:31:02;;;;;;;;;;;19.40;57.10;;;;;;5044517;28;1973;-70
2023/02/11 10:33:40;;;;;;;;;;;19.50;57.20;;;;;;5074617;28;1039;-69
2023/02/11 10:36:06;;;;;;;;;;;19.50;57.40;;;;;;5072191;28;1340;-70
2023/02/11 10:38:32;;;;;;;;;;;19.40;57.40;;;;;;5040683;28;963;-69
2023/02/11 10:40:58;;;;;;;;;;;19.40;57.50;;;;;;5039694;28;2185;-71
2023/02/11 10:43:25;;;;;;;;;;;19.40;57.50;;;;;;5041652;28;2169;-70
2023/02/11 10:45:51;;;;;;;;;;;19.40;57.60;;;;;;5077810;28;1520;-70
2023/02/11 10:48:35;;;;;;;;;;;19.40;57.50;;;;;;5041519;28;1549;-70
2023/02/11 10:51:07;;;;;;;;;;;19.40;57.60;;;;;;5039712;28;1965;-70
2023/02/11 10:53:34;;;;;;;;;;;19.30;57.60;;;;;;5069716;28;835;-69
2023/02/11 10:56:00;;;;;;;;;;;19.30;57.60;;;;;;5038092;28;846;-70
2023/02/11 10:58:46;;;;;;;;;;;19.30;57.60;;;;;;5073555;28;889;-69
2023/02/11 11:01:11;;;;;;;;;;;19.30;57.70;;;;;;5040231;28;1268;-69
2023/02/11 11:03:47;;;;;;;;;;;19.30;57.70;;;;;;5073861;28;896;-70
2023/02/11 11:06:13;;;;;;;;;;;19.30;57.70;;;;;;5038127;28;878;-71
2023/02/11 11:08:38;;;;;;;;;;;19.30;57.70;;;;;;5036910;28;2156;-70
2023/02/11 11:11:04;;;;;;;;;;;19.30;57.80;;;;;;5038951;28;1902;-70
2023/02/11 11:13:33;;;;;;;;;;;19.30;57.80;;;;;;5040955;28;913;-70
2023/02/11 11:16:11;;;;;;;;;;;19.30;57.90;;;;;;5073579;28;863;-70
2023/02/11 11:18:40;;;;;;;;;;;19.20;57.80;;;;;;5039631;28;1030;-70
2023/02/11 11:21:06;;;;;;;;;;;19.20;57.90;;;;;;5041799;28;2114;-70
2023/02/11 11:23:33;;;;;;;;;;;19.20;58.00;;;;;;5073095;28;1362;-69
2023/02/11 11:26:09;;;;;;;;;;;19.20;58.00;;;;;;5072759;28;1557;-70
2023/02/11 11:28:37;;;;;;;;;;;19.20;58.10;;;;;;5069354;28;907;-70
2023/02/11 11:31:03;;;;;;;;;;;19.10;58.10;;;;;;5074636;28;1969;-69
2023/02/11 11:33:29;;;;;;;;;;;19.20;58.20;;;;;;5075171;28;1002;-70
2023/02/11 11:36:04;;;;;;;;;;;19.10;58.10;;;;;;5041832;28;1352;-70
2023/02/11 11:38:29;;;;;;;;;;;19.10;58.30;;;;;;5042102;28;952;-70
2023/02/11 11:41:14;;;;;;;;;;;19.10;58.30;;;;;;5037995;28;1283;-69
2023/02/11 11:43:39;;;;;;;;;;;19.10;58.30;;;;;;5024448;28;4027;-69
2023/02/11 11:46:07;;;;;;;;;;;19.10;58.50;;;;;;5041642;28;1443;-69
2023/02/11 11:48:33;;;;;;;;;;;19.10;58.70;;;;;;5041588;28;909;-69
2023/02/11 11:51:00;;;;;;;;;;;19.10;58.60;;;;;;5073450;28;1905;-69
2023/02/11 11:53:26;;;;;;;;;;;19.10;58.60;;;;;;5072540;28;851;-69
2023/02/11 11:55:54;;;;;;;;;;;19.00;58.60;;;;;;5039013;28;1052;-69
2023/02/11 11:58:20;;;;;;;;;;;19.00;58.60;;;;;;5035596;28;827;-69
2023/02/11 12:01:04;;;;;;;;;;;19.00;58.60;;;;;;5070344;28;1379;-69
2023/02/11 12:03:30;;;;;;;;;;;19.00;58.70;;;;;;5040451;28;2172;-67
2023/02/11 12:05:55;;;;;;;;;;;19.00;58.70;;;;;;5037890;28;2082;-69
2023/02/11 12:08:20;;;;;;;;;;;19.00;58.70;;;;;;5038758;28;2122;-69
2023/02/11 12:11:04;;;;;;;;;;;19.00;58.70;;;;;;5042582;28;1973;-70
2023/02/11 12:13:38;;;;;;;;;;;19.00;59.30;;;;;;5069176;28;974;-69
2023/02/11 12:16:05;;;;;;;;;;;19.00;58.70;;;;;;5074047;28;1379;-68
2023/02/11 12:18:34;;;;;;;;;;;19.00;58.80;;;;;;5040115;28;1412;-69
2023/02/11 12:21:00;;;;;;;;;;;18.90;58.70;;;;;;5042788;28;1338;-72
2023/02/11 12:23:29;;;;;;;;;;;18.90;58.80;;;;;;5042447;28;1104;-73
2023/02/11 12:25:54;;;;;;;;;;;18.90;58.80;;;;;;5071128;28;1042;-72
2023/02/11 12:28:38;;;;;;;;;;;18.90;58.90;;;;;;5036212;28;882;-70
2023/02/11 12:31:10;;;;;;;;;;;18.90;58.90;;;;;;5039641;28;1959;-71
2023/02/11 12:33:43;;;;;;;;;;;19.00;59.10;;;;;;5038441;28;1195;-73
2023/02/11 12:36:13;;;;;;;;;;;18.90;59.10;;;;;;5043298;28;1379;-70
2023/02/11 12:38:47;;;;;;;;;;;18.90;59.00;;;;;;5059340;28;1344;-71
2023/02/11 12:43:15;;;;;;;;;;;18.90;59.20;;;;;;5037729;28;1258;-69
2023/02/11 12:44:14;;;;;;;;;;;18.90;59.00;;;;;;5067351;28;1078;-69
2023/02/11 12:46:46;;;;;;;;;;;18.90;59.00;;;;;;5055374;28;1205;-70
2023/02/11 12:49:41;;;;;;;;;;;18.90;59.00;;;;;;5039531;28;1894;-70
2023/02/11 12:52:18;;;;;;;;;;;18.90;59.10;;;;;;5037082;28;1301;-70
2023/02/11 12:54:50;;;;;;;;;;;18.90;59.10;;;;;;5071147;28;813;-69
2023/02/11 12:57:17;;;;;;;;;;;18.90;59.20;;;;;;5067941;28;2124;-70
2023/02/11 12:59:42;;;;;;;;;;;18.90;59.50;;;;;;5040435;28;1422;-70
2023/02/11 13:02:22;;;;;;;;;;;18.90;59.40;;;;;;5038938;28;1346;-69
2023/02/11 13:04:49;;;;;;;;;;;18.90;59.60;;;;;;5069517;28;1248;-69
2023/02/11 13:07:16;;;;;;;;;;;18.90;57.20;;;;;;5069293;28;917;-70
2023/02/11 13:09:47;;;;;;;;;;;18.80;55.70;;;;;;5070079;28;1972;-68
2023/02/11 13:15:00;;;;;;;;;;;18.70;54.30;;;;;;5066900;28;1369;-69
2023/02/11 13:17:49;;;;;;;;;;;18.60;53.80;;;;;;5041030;28;1312;-69
2023/02/11 13:20:35;;;;;;;;;;;18.50;53.50;;;;;;5037124;28;1731;-69
2023/02/11 13:23:03;;;;;;;;;;;18.50;53.40;;;;;;5038447;28;1015;-70
2023/02/11 13:25:36;;;;;;;;;;;18.40;53.10;;;;;;5068823;28;938;-70
2023/02/11 13:28:22;;;;;;;;;;;18.40;53.10;;;;;;5071445;28;888;-68
2023/02/11 13:30:56;;;;;;;;;;;18.30;52.80;;;;;;5028115;28;1910;-68
2023/02/11 13:33:51;;;;;;;;;;;18.30;52.80;;;;;;5068880;28;898;-68
2023/02/11 13:36:17;;;;;;;;;;;18.30;52.80;;;;;;5030724;28;1288;-68
2023/02/11 13:38:52;;;;;;;;;;;18.30;52.60;;;;;;5039176;28;963;-68
2023/02/11 13:41:34;;;;;;;;;;;18.20;52.50;;;;;;5040433;28;1255;-69
2023/02/11 13:44:00;;;;;;;;;;;18.20;52.50;;;;;;5034262;28;945;-68
2023/02/11 13:46:26;;;;;;;;;;;18.20;52.40;;;;;;5070522;28;819;-68
2023/02/11 13:48:52;;;;;;;;;;;18.10;52.30;;;;;;5074167;28;1013;-68
2023/02/11 13:51:18;;;;;;;;;;;18.10;52.30;;;;;;5070204;28;1202;-68
2023/02/11 13:53:50;;;;;;;;;;;18.10;52.80;;;;;;5068709;28;954;-69
2023/02/11 13:56:22;;;;;;;;;;;18.10;53.00;;;;;;5037886;28;937;-69
2023/02/11 13:58:48;;;;;;;;;;;18.10;53.20;;;;;;5041406;28;1030;-67
2023/02/11 14:08:56;;;;;;;;;;;18.10;53.30;;;;;;5065919;28;1976;-68
2023/02/11 14:10:42;;;;;;;;;;;18.10;54.00;;;;;;4969802;28;1956;-69
2023/02/11 14:13:26;;;;;;;;;;;18.10;54.30;;;;;;5038453;28;781;-69
2023/02/11 14:16:08;;;;;;;;;;;18.10;54.40;;;;;;5035617;28;1800;-69
2023/02/11 14:18:37;;;;;;;;;;;18.10;54.60;;;;;;5053761;28;1679;-70
2023/02/11 14:21:10;;;;;;;;;;;18.10;54.80;;;;;;5038171;28;1370;-69
2023/02/11 14:23:36;;;;;;;;;;;18.10;54.90;;;;;;5037429;28;911;-68
2023/02/11 14:26:08;;;;;;;;;;;18.10;55.00;;;;;;5035620;28;863;-68
2023/02/11 14:28:34;;;;;;;;;;;18.10;55.10;;;;;;5037619;28;978;-68
2023/02/11 14:31:07;;;;;;;;;;;18.10;55.20;;;;;;5037185;28;1902;-68
2023/02/11 14:33:46;;;;;;;;;;;18.10;55.20;;;;;;5066440;28;880;-67
2023/02/11 14:36:23;;;;;;;;;;;18.10;55.30;;;;;;5070742;28;1309;-69
2023/02/11 14:38:55;;;;;;;;;;;18.10;55.40;;;;;;5036903;28;813;-68
2023/02/11 14:41:23;;;;;;;;;;;18.10;55.50;;;;;;5039173;28;1369;-68
2023/02/11 14:43:56;;;;;;;;;;;18.10;55.60;;;;;;5037682;28;2158;-70
2023/02/11 14:46:22;;;;;;;;;;;18.00;55.60;;;;;;5073870;28;1460;-68
2023/02/11 14:48:48;;;;;;;;;;;18.10;55.70;;;;;;5073704;28;1283;-69
2023/02/11 14:51:26;;;;;;;;;;;18.00;55.70;;;;;;5067857;28;1906;-69
2023/02/11 14:53:52;;;;;;;;;;;18.10;55.80;;;;;;5039125;28;1477;-68